createdAt,value
2019-05-14T00:02:27.999Z,10.80
2019-05-14T00:04:58.460Z,10.70
2019-05-14T00:07:28.798Z,10.70
2019-05-14T00:10:01.077Z,10.70
2019-05-14T00:12:31.513Z,10.70
2019-05-14T00:15:02.341Z,10.60
2019-05-14T00:17:32.859Z,10.60
2019-05-14T00:20:09.710Z,10.60
2019-05-14T00:22:35.545Z,10.60
2019-05-14T00:25:06.597Z,10.60
2019-05-14T00:27:37.714Z,10.60
2019-05-14T00:30:08.436Z,10.50
2019-05-14T00:32:40.851Z,10.60
2019-05-14T00:35:12.684Z,10.50
2019-05-14T00:37:43.147Z,10.60
2019-05-14T00:40:13.740Z,10.50
2019-05-14T00:42:44.079Z,10.50
2019-05-14T00:45:14.554Z,10.50
2019-05-14T00:47:44.985Z,10.50
2019-05-14T00:50:15.671Z,10.50
2019-05-14T00:52:46.461Z,10.50
2019-05-14T00:55:16.881Z,10.50
2019-05-14T00:57:47.307Z,10.40
2019-05-14T01:00:18.530Z,10.40
2019-05-14T01:02:51.555Z,10.50
2019-05-14T01:05:41.392Z,10.50
2019-05-14T01:08:12.626Z,10.40
2019-05-14T01:10:43.687Z,10.40
2019-05-14T01:13:14.749Z,10.30
2019-05-14T01:15:45.742Z,10.30
2019-05-14T01:18:16.565Z,10.30
2019-05-14T01:20:47.338Z,10.30
2019-05-14T01:23:18.012Z,10.30
2019-05-14T01:25:48.912Z,10.20
2019-05-14T01:28:21.583Z,10.30
2019-05-14T01:30:52.196Z,10.20
2019-05-14T01:33:22.778Z,10.20
2019-05-14T01:35:53.665Z,10.20
2019-05-14T01:38:24.558Z,10.20
2019-05-14T01:40:55.321Z,10.10
2019-05-14T01:43:26.188Z,10.10
2019-05-14T01:45:56.742Z,10.10
2019-05-14T01:48:27.836Z,10.00
2019-05-14T01:51:01.304Z,10.00
2019-05-14T01:53:31.522Z,10.00
2019-05-14T01:56:02.440Z,10.00
2019-05-14T01:58:33.302Z,10.00
2019-05-14T02:01:03.854Z,9.90
2019-05-14T02:03:34.765Z,9.90
2019-05-14T02:06:05.524Z,9.80
2019-05-14T02:08:36.448Z,9.70
2019-05-14T02:11:06.933Z,9.70
2019-05-14T02:13:37.816Z,9.70
2019-05-14T02:16:08.540Z,9.70
2019-05-14T02:18:41.450Z,9.70
2019-05-14T02:21:11.882Z,9.70
2019-05-14T02:23:42.469Z,9.60
2019-05-14T02:26:13.121Z,9.60
2019-05-14T02:28:43.853Z,9.60
2019-05-14T02:31:14.955Z,9.60
2019-05-14T02:33:45.977Z,9.60
2019-05-14T02:36:19.444Z,9.50
2019-05-14T02:38:49.683Z,9.50
2019-05-14T02:41:20.600Z,9.50
2019-05-14T02:43:51.408Z,9.40
2019-05-14T02:46:22.341Z,9.40
2019-05-14T02:48:52.992Z,9.40
2019-05-14T02:51:25.124Z,9.40
2019-05-14T02:53:58.907Z,9.40
2019-05-14T02:56:29.494Z,9.30
2019-05-14T02:59:05.168Z,9.30
2019-05-14T03:01:32.350Z,9.30
2019-05-14T03:04:02.821Z,9.30
2019-05-14T03:06:33.155Z,9.30
2019-05-14T03:09:04.092Z,9.30
2019-05-14T03:11:34.777Z,9.30
2019-05-14T03:14:05.129Z,9.30
2019-05-14T03:16:40.060Z,9.30
2019-05-14T03:19:09.989Z,9.20
2019-05-14T03:21:40.700Z,9.20
2019-05-14T03:24:11.178Z,9.20
2019-05-14T03:26:41.854Z,9.10
2019-05-14T03:29:12.169Z,9.10
2019-05-14T03:31:43.647Z,9.00
2019-05-14T03:34:14.706Z,9.00
2019-05-14T03:36:45.338Z,9.00
2019-05-14T03:39:18.951Z,9.00
2019-05-14T03:41:49.942Z,8.90
2019-05-14T03:44:20.124Z,8.90
2019-05-14T03:46:55.211Z,8.80
2019-05-14T03:49:22.793Z,8.80
2019-05-14T03:51:53.154Z,8.70
2019-05-14T03:54:23.616Z,8.70
2019-05-14T03:56:53.991Z,8.80
2019-05-14T03:59:24.755Z,8.80
2019-05-14T04:01:59.370Z,8.80
2019-05-14T04:04:29.948Z,8.80
2019-05-14T04:07:02.432Z,8.80
2019-05-14T04:09:34.164Z,8.80
2019-05-14T04:12:09.715Z,8.70
2019-05-14T04:14:42.947Z,8.70
2019-05-14T04:17:23.678Z,8.70
2019-05-14T04:19:50.565Z,8.70
2019-05-14T04:22:23.725Z,8.70
2019-05-14T04:24:55.858Z,8.70
2019-05-14T04:27:29.911Z,8.70
2019-05-14T04:30:02.379Z,8.70
2019-05-14T04:32:34.001Z,8.70
2019-05-14T04:35:04.708Z,8.70
2019-05-14T04:37:35.141Z,8.70
2019-05-14T04:40:09.667Z,8.70
2019-05-14T04:42:40.153Z,8.70
2019-05-14T04:45:11.407Z,8.70
2019-05-14T04:48:01.038Z,8.70
2019-05-14T04:50:31.402Z,8.70
2019-05-14T04:53:01.808Z,8.70
2019-05-14T04:55:32.260Z,8.70
2019-05-14T04:58:02.677Z,8.70
2019-05-14T05:00:33.144Z,8.70
2019-05-14T05:03:08.056Z,8.70
2019-05-14T05:05:39.419Z,8.70
2019-05-14T05:08:09.135Z,8.60
2019-05-14T05:10:39.957Z,8.60
2019-05-14T05:13:10.550Z,8.60
2019-05-14T05:15:40.897Z,8.60
2019-05-14T05:18:11.270Z,8.60
2019-05-14T05:20:41.677Z,8.60
2019-05-14T05:23:12.084Z,8.50
2019-05-14T05:25:42.440Z,8.50
2019-05-14T05:28:12.917Z,8.50
2019-05-14T05:30:43.258Z,8.50
2019-05-14T05:33:13.617Z,8.50
2019-05-14T05:35:44.032Z,8.50
2019-05-14T05:38:14.436Z,8.50
2019-05-14T05:40:44.850Z,8.50
2019-05-14T05:43:15.281Z,8.60
2019-05-14T05:45:45.666Z,8.60
2019-05-14T05:48:18.594Z,8.60
2019-05-14T05:50:48.600Z,8.60
2019-05-14T05:53:19.458Z,8.60
2019-05-14T05:55:50.020Z,8.60
2019-05-14T05:58:20.362Z,8.70
2019-05-14T06:00:50.797Z,8.70
2019-05-14T06:03:21.243Z,8.70
2019-05-14T06:05:51.683Z,8.70
2019-05-14T06:08:22.055Z,8.70
2019-05-14T06:10:52.466Z,8.80
2019-05-14T06:13:22.814Z,8.80
2019-05-14T06:15:53.146Z,8.80
2019-05-14T06:18:23.533Z,8.80
2019-05-14T06:20:53.852Z,8.80
2019-05-14T06:23:24.203Z,8.80
2019-05-14T06:25:54.590Z,8.80
2019-05-14T06:28:28.393Z,8.90
2019-05-14T06:30:59.045Z,8.80
2019-05-14T06:33:29.194Z,8.90
2019-05-14T06:35:59.528Z,8.90
2019-05-14T06:38:29.988Z,9.00
2019-05-14T06:41:00.423Z,9.00
2019-05-14T06:43:30.863Z,9.00
2019-05-14T06:46:01.277Z,9.00
2019-05-14T06:48:34.827Z,9.00
2019-05-14T06:51:03.719Z,9.00
2019-05-14T06:53:34.084Z,9.10
2019-05-14T06:56:04.448Z,9.10
2019-05-14T06:58:34.841Z,9.10
2019-05-14T07:01:05.181Z,9.20
2019-05-14T07:03:35.555Z,9.30
2019-05-14T07:06:05.890Z,9.40
2019-05-14T07:08:39.009Z,9.40
2019-05-14T07:11:08.702Z,9.40
2019-05-14T07:13:40.158Z,9.40
2019-05-14T07:16:10.490Z,9.50
2019-05-14T07:18:53.473Z,9.60
2019-05-14T07:21:13.246Z,9.60
2019-05-14T07:23:43.751Z,9.60
2019-05-14T07:26:14.088Z,9.70
2019-05-14T07:28:44.541Z,9.70
2019-05-14T07:31:14.934Z,9.80
2019-05-14T07:33:45.361Z,9.80
2019-05-14T07:36:15.777Z,9.80
2019-05-14T07:38:48.686Z,9.80
2019-05-14T07:41:19.287Z,9.80
2019-05-14T07:43:50.001Z,9.90
2019-05-14T07:46:20.327Z,10.00
2019-05-14T07:49:04.365Z,10.00
2019-05-14T07:51:23.585Z,10.00
2019-05-14T07:54:09.174Z,10.10
2019-05-14T07:56:39.614Z,10.10
2019-05-14T07:59:10.033Z,10.10
2019-05-14T08:01:40.478Z,10.20
2019-05-14T08:04:11.807Z,10.20
2019-05-14T08:06:42.697Z,10.30
2019-05-14T08:09:13.069Z,10.30
2019-05-14T08:11:43.458Z,10.40
2019-05-14T08:14:13.893Z,10.40
2019-05-14T08:16:44.377Z,10.50
2019-05-14T08:19:24.160Z,10.50
2019-05-14T08:24:30.039Z,10.50
2019-05-14T08:27:14.559Z,10.60
2019-05-14T08:29:45.363Z,10.60
2019-05-14T08:32:15.955Z,10.60
2019-05-14T08:34:48.247Z,10.60
2019-05-14T08:37:19.145Z,10.70
2019-05-14T08:39:49.741Z,10.70
2019-05-14T08:42:20.241Z,10.80
2019-05-14T08:44:51.514Z,10.80
2019-05-14T08:47:22.311Z,10.80
2019-05-14T08:49:52.691Z,10.80
2019-05-14T08:52:23.078Z,10.90
2019-05-14T08:55:05.386Z,10.90
2019-05-14T08:57:25.624Z,11.00
2019-05-14T08:59:59.134Z,11.00
2019-05-14T09:02:28.621Z,11.00
2019-05-14T09:05:03.571Z,11.10
2019-05-14T09:07:31.346Z,11.10
2019-05-14T09:10:01.791Z,11.10
2019-05-14T09:12:32.341Z,11.20
2019-05-14T09:15:02.820Z,11.20
2019-05-14T09:17:33.524Z,11.30
2019-05-14T09:20:07.111Z,11.40
2019-05-14T09:22:36.058Z,11.40
2019-05-14T09:25:08.472Z,11.50
2019-05-14T09:27:39.071Z,11.50
2019-05-14T09:30:10.290Z,11.50
2019-05-14T09:32:40.776Z,11.50
2019-05-14T09:35:11.431Z,11.60
2019-05-14T09:37:41.887Z,11.60
2019-05-14T09:40:12.592Z,11.60
2019-05-14T09:42:43.047Z,11.60
2019-05-14T09:45:13.675Z,11.60
2019-05-14T09:47:47.535Z,11.50
2019-05-14T09:50:22.885Z,11.50
2019-05-14T09:52:49.446Z,11.60
2019-05-14T09:55:20.097Z,11.60
2019-05-14T09:57:50.540Z,11.60
2019-05-14T10:00:21.115Z,11.60
2019-05-14T10:02:51.548Z,11.70
2019-05-14T10:05:22.035Z,11.70
2019-05-14T10:07:52.429Z,11.80
2019-05-14T10:10:22.858Z,11.80
2019-05-14T10:12:57.028Z,11.90
2019-05-14T10:15:25.426Z,11.90
2019-05-14T10:17:59.796Z,12.00
2019-05-14T10:20:40.305Z,12.00
2019-05-14T10:23:00.044Z,12.00
2019-05-14T10:25:30.509Z,12.00
2019-05-14T10:28:00.945Z,12.00
2019-05-14T10:30:31.812Z,11.90
2019-05-14T10:33:09.263Z,11.90
2019-05-14T10:35:34.302Z,11.90
2019-05-14T10:38:04.650Z,11.80
2019-05-14T10:40:35.073Z,11.80
2019-05-14T10:43:05.469Z,11.80
2019-05-14T10:45:38.272Z,11.80
2019-05-14T10:48:09.626Z,11.80
2019-05-14T10:50:55.853Z,11.80
2019-05-14T10:53:12.122Z,11.80
2019-05-14T10:55:42.554Z,11.80
2019-05-14T10:58:12.963Z,11.80
2019-05-14T11:00:43.459Z,11.80
2019-05-14T11:03:13.954Z,11.90
2019-05-14T11:05:44.310Z,12.00
2019-05-14T11:08:14.723Z,12.00
2019-05-14T11:10:45.098Z,12.00
2019-05-14T11:13:15.486Z,12.00
2019-05-14T11:15:48.447Z,12.00
2019-05-14T11:18:19.689Z,12.10
2019-05-14T11:20:51.523Z,12.10
2019-05-14T11:23:23.419Z,12.10
2019-05-14T11:25:53.774Z,12.10
2019-05-14T11:28:24.192Z,12.10
2019-05-14T11:30:54.557Z,12.10
2019-05-14T11:33:24.970Z,12.20
2019-05-14T11:35:55.347Z,12.20
2019-05-14T11:38:33.653Z,12.20
2019-05-14T11:40:58.791Z,12.20
2019-05-14T11:43:29.326Z,12.20
2019-05-14T11:45:59.832Z,12.20
2019-05-14T11:48:30.197Z,12.10
2019-05-14T11:51:01.529Z,12.10
2019-05-14T11:53:31.944Z,12.10
2019-05-14T11:56:02.306Z,12.10
2019-05-14T11:58:32.740Z,12.00
2019-05-14T12:01:03.252Z,12.00
2019-05-14T12:03:33.784Z,12.00
2019-05-14T12:06:04.206Z,12.10
2019-05-14T12:08:34.535Z,12.10
2019-05-14T12:11:05.033Z,12.20
2019-05-14T12:13:39.183Z,12.20
2019-05-14T12:16:08.746Z,12.20
2019-05-14T12:18:41.739Z,12.20
2019-05-14T12:21:11.375Z,12.30
2019-05-14T12:23:41.721Z,12.30
2019-05-14T12:26:12.234Z,12.30
2019-05-14T12:28:42.650Z,12.30
2019-05-14T12:31:13.035Z,12.30
2019-05-14T12:33:43.548Z,12.30
2019-05-14T12:36:14.041Z,12.30
2019-05-14T12:38:44.557Z,12.20
2019-05-14T12:41:15.011Z,12.00
2019-05-14T12:43:45.522Z,11.90
2019-05-14T12:46:15.951Z,11.90
2019-05-14T12:48:49.238Z,11.90
2019-05-14T12:51:18.708Z,11.90
2019-05-14T12:53:49.403Z,11.90
2019-05-14T12:56:19.875Z,11.90
2019-05-14T12:58:50.275Z,12.00
2019-05-14T13:01:20.671Z,12.00
2019-05-14T13:03:51.101Z,12.00
2019-05-14T13:06:21.574Z,12.00
2019-05-14T13:08:52.012Z,12.00
2019-05-14T13:11:22.583Z,12.10
2019-05-14T13:13:53.173Z,12.10
2019-05-14T13:16:23.705Z,12.10
2019-05-14T13:18:54.241Z,12.20
2019-05-14T13:21:24.823Z,12.10
2019-05-14T13:23:55.397Z,12.20
2019-05-14T13:26:25.864Z,12.20
2019-05-14T13:28:58.614Z,12.10
2019-05-14T13:31:29.292Z,12.10
2019-05-14T13:34:00.058Z,12.00
2019-05-14T13:36:30.568Z,12.00
2019-05-14T13:39:01.012Z,12.00
2019-05-14T13:41:33.088Z,12.00
2019-05-14T13:44:17.246Z,12.10
2019-05-14T13:46:35.676Z,12.10
2019-05-14T13:49:06.067Z,12.00
2019-05-14T13:51:38.793Z,12.00
2019-05-14T13:54:08.684Z,12.10
2019-05-14T13:56:39.172Z,12.10
2019-05-14T13:59:09.697Z,12.10
2019-05-14T14:01:40.086Z,12.10
2019-05-14T14:04:14.786Z,12.10
2019-05-14T14:06:42.662Z,12.10
2019-05-14T14:09:13.134Z,12.10
2019-05-14T14:11:43.685Z,12.10
2019-05-14T14:14:14.114Z,12.10
2019-05-14T14:16:44.554Z,12.00
2019-05-14T14:19:14.930Z,12.00
2019-05-14T14:21:45.485Z,11.90
2019-05-14T14:24:15.945Z,11.90
2019-05-14T14:26:48.777Z,11.90
2019-05-14T14:29:18.882Z,11.90
2019-05-14T14:31:49.548Z,11.90
2019-05-14T14:34:19.917Z,11.90
2019-05-14T14:36:54.397Z,11.90
2019-05-14T14:39:22.308Z,11.90
2019-05-14T14:41:52.659Z,11.90
2019-05-14T14:44:23.113Z,11.90
2019-05-14T14:46:53.476Z,12.00
2019-05-14T14:49:23.837Z,12.00
2019-05-14T14:51:54.281Z,11.90
2019-05-14T14:54:24.674Z,11.90
2019-05-14T14:56:55.184Z,11.90
2019-05-14T14:59:25.657Z,11.90
2019-05-14T15:01:59.419Z,11.90
2019-05-14T15:04:28.170Z,11.90
2019-05-14T15:06:59.794Z,11.90
2019-05-14T15:09:30.370Z,11.90
2019-05-14T15:12:00.872Z,11.80
2019-05-14T15:14:31.274Z,11.70
2019-05-14T15:17:01.864Z,11.70
2019-05-14T15:19:32.368Z,11.70
2019-05-14T15:22:03.075Z,11.70
2019-05-14T15:24:33.529Z,11.60
2019-05-14T15:27:07.569Z,11.50
2019-05-14T15:29:38.544Z,11.50
2019-05-14T15:32:09.321Z,11.50
2019-05-14T15:34:40.017Z,11.50
2019-05-14T15:37:10.846Z,11.50
2019-05-14T15:39:41.386Z,11.50
2019-05-14T15:42:13.859Z,11.50
2019-05-14T15:44:52.131Z,11.60
2019-05-14T15:47:18.819Z,11.50
2019-05-14T15:49:49.013Z,11.50
2019-05-14T15:52:19.584Z,11.50
2019-05-14T15:54:51.028Z,11.50
2019-05-14T15:57:21.401Z,11.50
2019-05-14T15:59:52.938Z,11.40
2019-05-14T16:02:23.439Z,11.40
2019-05-14T16:04:53.924Z,11.30
2019-05-14T16:07:24.313Z,11.20
2019-05-14T16:09:54.770Z,11.20
2019-05-14T16:12:28.680Z,11.20
2019-05-14T16:14:58.516Z,11.20
2019-05-14T16:17:30.363Z,11.10
2019-05-14T16:20:00.994Z,11.10
2019-05-14T16:22:31.632Z,11.10
2019-05-14T16:25:02.157Z,11.10
2019-05-14T16:27:32.637Z,11.00
2019-05-14T16:30:02.988Z,11.00
2019-05-14T16:32:33.634Z,11.00
2019-05-14T16:35:04.323Z,11.00
2019-05-14T16:37:34.950Z,11.00
2019-05-14T16:40:05.711Z,11.00
2019-05-14T16:42:39.177Z,10.90
2019-05-14T16:45:08.963Z,10.80
2019-05-14T16:47:40.151Z,10.80
2019-05-14T16:50:11.115Z,10.70
2019-05-14T16:52:42.617Z,10.80
2019-05-14T16:55:23.429Z,10.80
2019-05-14T16:57:45.566Z,10.70
2019-05-14T17:00:18.362Z,10.70
2019-05-14T17:02:48.375Z,10.70
2019-05-14T17:05:18.865Z,10.70
2019-05-14T17:07:49.324Z,10.60
2019-05-14T17:10:19.705Z,10.60
2019-05-14T17:12:56.951Z,10.60
2019-05-14T17:15:22.349Z,10.50
2019-05-14T17:17:52.718Z,10.60
2019-05-14T17:20:24.469Z,10.60
2019-05-14T17:22:55.196Z,10.60
2019-05-14T17:25:29.557Z,10.50
2019-05-14T17:27:59.318Z,10.50
2019-05-14T17:30:30.280Z,10.50
2019-05-14T17:33:00.791Z,10.40
2019-05-14T17:35:31.325Z,10.40
2019-05-14T17:38:02.087Z,10.30
2019-05-14T17:40:32.493Z,10.30
2019-05-14T17:43:02.973Z,10.30
2019-05-14T17:45:33.480Z,10.30
2019-05-14T17:48:03.946Z,10.30
2019-05-14T17:50:34.547Z,10.20
2019-05-14T17:53:05.053Z,10.20
2019-05-14T17:55:46.396Z,10.30
2019-05-14T17:58:12.855Z,10.30
2019-05-14T18:00:39.705Z,10.20
2019-05-14T18:03:10.167Z,10.20
2019-05-14T18:05:40.552Z,10.10
2019-05-14T18:08:12.224Z,10.10
2019-05-14T18:10:42.730Z,10.10
2019-05-14T18:13:13.308Z,10.10
2019-05-14T18:15:43.863Z,10.10
2019-05-14T18:18:14.451Z,10.00
2019-05-14T18:23:28.939Z,9.90
2019-05-14T18:26:08.030Z,9.90
2019-05-14T18:28:31.724Z,9.90
2019-05-14T18:31:02.103Z,10.00
2019-05-14T18:33:32.580Z,10.00
2019-05-14T18:36:03.197Z,10.00
2019-05-14T18:38:33.630Z,9.90
2019-05-14T18:41:04.037Z,9.90
2019-05-14T18:43:34.619Z,9.90
2019-05-14T18:46:04.974Z,9.80
2019-05-14T18:48:35.431Z,9.80
2019-05-14T18:51:08.670Z,9.80
2019-05-14T18:53:38.454Z,9.70
2019-05-14T18:56:20.177Z,9.70
2019-05-14T18:58:41.333Z,9.60
2019-05-14T19:01:11.814Z,9.50
2019-05-14T19:03:42.354Z,9.60
2019-05-14T19:06:12.846Z,9.60
2019-05-14T19:08:43.354Z,9.50
2019-05-14T19:11:14.234Z,9.60
2019-05-14T19:13:44.765Z,9.60
2019-05-14T19:16:15.210Z,9.50
2019-05-14T19:18:45.603Z,9.50
2019-05-14T19:21:15.979Z,9.40
2019-05-14T19:23:48.986Z,9.40
2019-05-14T19:26:32.964Z,9.40
2019-05-14T19:28:50.871Z,9.30
2019-05-14T19:31:21.234Z,9.30
2019-05-14T19:33:51.606Z,9.30
2019-05-14T19:36:22.004Z,9.30
2019-05-14T19:38:52.527Z,9.20
2019-05-14T19:41:23.168Z,9.20
2019-05-14T19:43:53.677Z,9.10
2019-05-14T19:46:24.106Z,9.10
2019-05-14T19:48:54.486Z,9.20
2019-05-14T19:51:27.762Z,9.20
2019-05-14T19:53:58.510Z,9.10
2019-05-14T19:56:29.455Z,9.10
2019-05-14T19:59:00.040Z,9.10
2019-05-14T20:01:30.480Z,9.10
2019-05-14T20:04:00.968Z,9.10
2019-05-14T20:06:32.575Z,9.10
2019-05-14T20:09:03.924Z,9.10
2019-05-14T20:11:34.375Z,9.10
2019-05-14T20:14:04.924Z,9.10
2019-05-14T20:16:35.593Z,9.10
2019-05-14T20:19:05.980Z,9.10
2019-05-14T20:21:38.759Z,9.10
2019-05-14T20:24:08.672Z,9.10
2019-05-14T20:26:39.488Z,9.00
2019-05-14T20:29:09.860Z,9.00
2019-05-14T20:31:40.415Z,9.00
2019-05-14T20:34:10.875Z,9.00
2019-05-14T20:36:41.219Z,9.00
2019-05-14T20:39:11.625Z,9.00
2019-05-14T20:41:42.374Z,9.00
2019-05-14T20:44:13.224Z,9.10
2019-05-14T20:46:43.722Z,9.00
2019-05-14T20:49:14.238Z,9.00
2019-05-14T20:51:44.799Z,9.00
2019-05-14T20:54:15.222Z,9.00
2019-05-14T20:56:45.774Z,8.90
2019-05-14T20:59:16.217Z,9.00
2019-05-14T21:01:46.823Z,8.90
2019-05-14T21:04:18.931Z,8.90
2019-05-14T21:06:49.289Z,8.90
2019-05-14T21:09:19.755Z,9.00
2019-05-14T21:11:50.437Z,9.00
2019-05-14T21:14:20.864Z,9.00
2019-05-14T21:16:51.241Z,8.90
2019-05-14T21:19:21.735Z,9.00
2019-05-14T21:21:52.500Z,9.00
2019-05-14T21:24:23.121Z,8.90
2019-05-14T21:26:53.857Z,8.90
2019-05-14T21:29:24.291Z,8.90
2019-05-14T21:31:54.793Z,8.90
2019-05-14T21:34:25.178Z,8.90
2019-05-14T21:36:55.608Z,8.90
2019-05-14T21:39:25.993Z,8.90
2019-05-14T21:41:58.444Z,8.90
2019-05-14T21:44:28.726Z,8.90
2019-05-14T21:46:59.405Z,8.80
2019-05-14T21:49:30.529Z,8.90
2019-05-14T21:52:00.904Z,8.90
2019-05-14T21:54:31.325Z,8.80
2019-05-14T21:57:01.769Z,8.80
2019-05-14T21:59:32.250Z,8.70
2019-05-14T22:02:03.165Z,8.60
2019-05-14T22:04:33.579Z,8.60
2019-05-14T22:07:04.048Z,8.60
2019-05-14T22:09:38.903Z,8.60
2019-05-14T22:12:07.633Z,8.60
2019-05-14T22:14:38.129Z,8.50
2019-05-14T22:17:08.629Z,8.50
2019-05-14T22:19:38.987Z,8.60
2019-05-14T22:22:09.405Z,8.50
2019-05-14T22:24:39.802Z,8.60
2019-05-14T22:27:10.147Z,8.60
2019-05-14T22:29:40.534Z,8.60
2019-05-14T22:32:10.877Z,8.50
2019-05-14T22:34:41.539Z,8.50
2019-05-14T22:37:12.010Z,8.50
2019-05-14T22:39:58.897Z,8.50
2019-05-14T22:42:29.547Z,8.50
2019-05-14T22:45:00.382Z,8.50
2019-05-14T22:47:30.999Z,8.40
2019-05-14T22:50:02.129Z,8.40
2019-05-14T22:52:32.791Z,8.30
2019-05-14T22:55:03.823Z,8.30
2019-05-14T22:57:34.242Z,8.30
2019-05-14T23:00:05.267Z,8.30
2019-05-14T23:02:38.231Z,8.30
2019-05-14T23:05:09.815Z,8.30
2019-05-14T23:07:52.286Z,8.30
2019-05-14T23:10:22.673Z,8.30
2019-05-14T23:12:53.074Z,8.30
2019-05-14T23:15:23.514Z,8.30
2019-05-14T23:17:53.902Z,8.30
2019-05-14T23:20:24.295Z,8.20
2019-05-14T23:22:54.776Z,8.30
2019-05-14T23:25:25.143Z,8.20
2019-05-14T23:27:55.540Z,8.20
2019-05-14T23:30:35.217Z,8.20
2019-05-14T23:33:05.725Z,8.20
2019-05-14T23:35:38.764Z,8.20
2019-05-14T23:38:08.599Z,8.30
2019-05-14T23:40:39.222Z,8.30
2019-05-14T23:43:09.631Z,8.30
2019-05-14T23:45:40.032Z,8.20
2019-05-14T23:48:10.458Z,8.30
2019-05-14T23:50:40.902Z,8.30
2019-05-14T23:53:11.265Z,8.30
2019-05-14T23:55:41.714Z,8.30
2019-05-14T23:58:12.084Z,8.30
